sensor_id;sensor_type;location;lat;lon;timestamp;P1;durP1;ratioP1;P2;durP2;ratioP2
13366;SDS011;6752;52.612;13.630;2023-12-22T00:04:46;9.47;;;3.13;;
13366;SDS011;6752;52.612;13.630;2023-12-22T00:09:48;9.43;;;3.13;;
13366;SDS011;6752;52.612;13.630;2023-12-22T00:14:51;7.27;;;2.53;;
13366;SDS011;6752;52.612;13.630;2023-12-22T00:19:53;11.77;;;2.83;;
13366;SDS011;6752;52.612;13.630;2023-12-22T00:24:56;12.52;;;3.67;;
13366;SDS011;6752;52.612;13.630;2023-12-22T00:29:58;6.33;;;2.37;;
13366;SDS011;6752;52.612;13.630;2023-12-22T00:35:00;11.07;;;3.00;;
13366;SDS011;6752;52.612;13.630;2023-12-22T00:40:02;9.07;;;2.70;;
13366;SDS011;6752;52.612;13.630;2023-12-22T00:45:05;13.63;;;2.67;;
13366;SDS011;6752;52.612;13.630;2023-12-22T00:50:07;13.17;;;2.70;;
13366;SDS011;6752;52.612;13.630;2023-12-22T00:55:10;12.27;;;3.00;;
13366;SDS011;6752;52.612;13.630;2023-12-22T01:00:12;14.40;;;3.00;;
13366;SDS011;6752;52.612;13.630;2023-12-22T01:05:14;11.10;;;3.20;;
13366;SDS011;6752;52.612;13.630;2023-12-22T01:10:17;11.50;;;3.00;;
13366;SDS011;6752;52.612;13.630;2023-12-22T01:15:19;12.15;;;3.87;;
13366;SDS011;6752;52.612;13.630;2023-12-22T01:20:21;13.23;;;3.47;;
13366;SDS011;6752;52.612;13.630;2023-12-22T01:25:24;10.77;;;2.80;;
13366;SDS011;6752;52.612;13.630;2023-12-22T01:30:26;13.18;;;4.03;;
13366;SDS011;6752;52.612;13.630;2023-12-22T01:35:28;9.70;;;2.77;;
13366;SDS011;6752;52.612;13.630;2023-12-22T01:40:31;14.00;;;3.43;;
13366;SDS011;6752;52.612;13.630;2023-12-22T01:45:33;8.20;;;2.50;;
13366;SDS011;6752;52.612;13.630;2023-12-22T01:50:36;7.60;;;2.80;;
13366;SDS011;6752;52.612;13.630;2023-12-22T01:55:38;11.40;;;2.93;;
13366;SDS011;6752;52.612;13.630;2023-12-22T02:00:40;11.87;;;3.00;;
13366;SDS011;6752;52.612;13.630;2023-12-22T02:05:46;12.33;;;2.77;;
13366;SDS011;6752;52.612;13.630;2023-12-22T02:10:48;11.27;;;3.53;;
13366;SDS011;6752;52.612;13.630;2023-12-22T02:15:59;14.40;;;3.80;;
13366;SDS011;6752;52.612;13.630;2023-12-22T02:20:53;12.07;;;3.33;;
13366;SDS011;6752;52.612;13.630;2023-12-22T02:25:57;12.18;;;3.80;;
13366;SDS011;6752;52.612;13.630;2023-12-22T02:31:02;11.70;;;3.50;;
13366;SDS011;6752;52.612;13.630;2023-12-22T02:36:05;10.20;;;2.83;;
13366;SDS011;6752;52.612;13.630;2023-12-22T02:41:07;9.27;;;3.03;;
13366;SDS011;6752;52.612;13.630;2023-12-22T02:46:13;12.87;;;2.73;;
13366;SDS011;6752;52.612;13.630;2023-12-22T02:51:15;11.90;;;2.90;;
13366;SDS011;6752;52.612;13.630;2023-12-22T02:56:17;14.20;;;2.80;;
13366;SDS011;6752;52.612;13.630;2023-12-22T03:01:19;10.52;;;3.40;;
13366;SDS011;6752;52.612;13.630;2023-12-22T03:06:22;10.33;;;2.83;;
13366;SDS011;6752;52.612;13.630;2023-12-22T03:11:28;12.73;;;2.77;;
13366;SDS011;6752;52.612;13.630;2023-12-22T03:16:31;9.47;;;2.37;;
13366;SDS011;6752;52.612;13.630;2023-12-22T03:21:33;6.53;;;2.00;;
13366;SDS011;6752;52.612;13.630;2023-12-22T03:26:35;9.63;;;2.50;;
13366;SDS011;6752;52.612;13.630;2023-12-22T03:31:38;9.43;;;2.50;;
13366;SDS011;6752;52.612;13.630;2023-12-22T03:36:40;8.23;;;2.83;;
13366;SDS011;6752;52.612;13.630;2023-12-22T03:41:42;8.67;;;4.03;;
13366;SDS011;6752;52.612;13.630;2023-12-22T03:46:45;10.55;;;3.10;;
13366;SDS011;6752;52.612;13.630;2023-12-22T03:51:47;6.40;;;2.03;;
13366;SDS011;6752;52.612;13.630;2023-12-22T03:56:49;9.17;;;2.77;;
13366;SDS011;6752;52.612;13.630;2023-12-22T04:01:52;10.77;;;2.60;;
13366;SDS011;6752;52.612;13.630;2023-12-22T04:06:54;9.27;;;2.55;;
13366;SDS011;6752;52.612;13.630;2023-12-22T04:11:56;8.80;;;2.70;;
13366;SDS011;6752;52.612;13.630;2023-12-22T04:16:59;6.97;;;2.07;;
13366;SDS011;6752;52.612;13.630;2023-12-22T04:22:02;4.72;;;1.90;;
13366;SDS011;6752;52.612;13.630;2023-12-22T04:27:04;4.00;;;1.20;;
13366;SDS011;6752;52.612;13.630;2023-12-22T04:32:07;5.37;;;1.10;;
13366;SDS011;6752;52.612;13.630;2023-12-22T04:37:09;3.17;;;0.70;;
13366;SDS011;6752;52.612;13.630;2023-12-22T04:42:11;3.80;;;1.00;;
13366;SDS011;6752;52.612;13.630;2023-12-22T04:47:14;5.10;;;1.50;;
13366;SDS011;6752;52.612;13.630;2023-12-22T04:52:16;3.60;;;1.30;;
13366;SDS011;6752;52.612;13.630;2023-12-22T04:57:18;4.72;;;1.55;;
13366;SDS011;6752;52.612;13.630;2023-12-22T05:02:21;2.90;;;0.90;;
13366;SDS011;6752;52.612;13.630;2023-12-22T05:07:23;3.27;;;1.10;;
13366;SDS011;6752;52.612;13.630;2023-12-22T05:12:26;3.57;;;1.30;;
13366;SDS011;6752;52.612;13.630;2023-12-22T05:17:28;4.78;;;1.20;;
13366;SDS011;6752;52.612;13.630;2023-12-22T05:22:30;3.60;;;1.20;;
13366;SDS011;6752;52.612;13.630;2023-12-22T05:27:33;1.50;;;0.50;;
13366;SDS011;6752;52.612;13.630;2023-12-22T05:32:35;0.77;;;0.73;;
13366;SDS011;6752;52.612;13.630;2023-12-22T05:37:37;2.17;;;0.70;;
13366;SDS011;6752;52.612;13.630;2023-12-22T06:52:58;4.27;;;1.13;;
13366;SDS011;6752;52.612;13.630;2023-12-22T06:58:01;4.87;;;1.00;;
13366;SDS011;6752;52.612;13.630;2023-12-22T07:03:03;2.37;;;0.77;;
13366;SDS011;6752;52.612;13.630;2023-12-22T07:08:06;5.73;;;1.00;;
13366;SDS011;6752;52.612;13.630;2023-12-22T07:13:08;2.43;;;0.63;;
13366;SDS011;6752;52.612;13.630;2023-12-22T07:18:11;1.80;;;0.90;;
13366;SDS011;6752;52.612;13.630;2023-12-22T07:23:13;3.13;;;0.70;;
13366;SDS011;6752;52.612;13.630;2023-12-22T07:28:16;3.17;;;0.80;;
13366;SDS011;6752;52.612;13.630;2023-12-22T07:33:19;2.90;;;1.00;;
13366;SDS011;6752;52.612;13.630;2023-12-22T07:38:22;3.50;;;1.20;;
13366;SDS011;6752;52.612;13.630;2023-12-22T07:43:24;7.03;;;1.27;;
13366;SDS011;6752;52.612;13.630;2023-12-22T07:48:27;6.10;;;1.50;;
13366;SDS011;6752;52.612;13.630;2023-12-22T07:53:29;3.57;;;1.10;;
13366;SDS011;6752;52.612;13.630;2023-12-22T07:58:31;8.03;;;1.20;;
13366;SDS011;6752;52.612;13.630;2023-12-22T08:03:35;5.53;;;1.50;;
13366;SDS011;6752;52.612;13.630;2023-12-22T08:08:37;5.10;;;1.33;;
13366;SDS011;6752;52.612;13.630;2023-12-22T08:13:40;5.47;;;1.20;;
13366;SDS011;6752;52.612;13.630;2023-12-22T08:18:45;7.57;;;1.70;;
13366;SDS011;6752;52.612;13.630;2023-12-22T08:23:47;8.02;;;2.10;;
13366;SDS011;6752;52.612;13.630;2023-12-22T08:28:50;7.07;;;2.07;;
13366;SDS011;6752;52.612;13.630;2023-12-22T08:34:02;6.07;;;1.30;;
13366;SDS011;6752;52.612;13.630;2023-12-22T08:44:43;3.33;;;1.20;;
13366;SDS011;6752;52.612;13.630;2023-12-22T08:49:46;5.60;;;1.43;;
13366;SDS011;6752;52.612;13.630;2023-12-22T08:54:49;4.73;;;1.73;;
13366;SDS011;6752;52.612;13.630;2023-12-22T08:59:56;6.73;;;1.73;;
13366;SDS011;6752;52.612;13.630;2023-12-22T09:04:59;7.87;;;1.47;;
13366;SDS011;6752;52.612;13.630;2023-12-22T09:10:02;6.70;;;1.90;;
13366;SDS011;6752;52.612;13.630;2023-12-22T09:15:05;5.77;;;1.50;;
13366;SDS011;6752;52.612;13.630;2023-12-22T09:31:13;5.90;;;1.30;;
13366;SDS011;6752;52.612;13.630;2023-12-22T09:36:16;6.73;;;1.70;;
13366;SDS011;6752;52.612;13.630;2023-12-22T09:41:18;9.73;;;1.90;;
13366;SDS011;6752;52.612;13.630;2023-12-22T09:46:20;5.23;;;1.80;;
13366;SDS011;6752;52.612;13.630;2023-12-22T09:51:23;7.10;;;1.80;;
13366;SDS011;6752;52.612;13.630;2023-12-22T09:56:25;11.03;;;2.60;;
13366;SDS011;6752;52.612;13.630;2023-12-22T10:01:27;5.70;;;1.97;;
13366;SDS011;6752;52.612;13.630;2023-12-22T10:06:30;7.90;;;1.70;;
13366;SDS011;6752;52.612;13.630;2023-12-22T10:11:32;8.70;;;2.20;;
13366;SDS011;6752;52.612;13.630;2023-12-22T10:16:35;8.67;;;1.80;;
13366;SDS011;6752;52.612;13.630;2023-12-22T10:21:37;7.20;;;1.90;;
13366;SDS011;6752;52.612;13.630;2023-12-22T10:26:39;11.32;;;2.92;;
13366;SDS011;6752;52.612;13.630;2023-12-22T10:31:42;9.33;;;2.33;;
13366;SDS011;6752;52.612;13.630;2023-12-22T10:36:44;9.13;;;2.10;;
13366;SDS011;6752;52.612;13.630;2023-12-22T10:41:46;9.23;;;2.40;;
13366;SDS011;6752;52.612;13.630;2023-12-22T10:46:49;8.03;;;2.30;;
13366;SDS011;6752;52.612;13.630;2023-12-22T10:51:51;10.40;;;2.80;;
13366;SDS011;6752;52.612;13.630;2023-12-22T10:56:55;6.83;;;2.33;;
13366;SDS011;6752;52.612;13.630;2023-12-22T11:01:56;10.23;;;2.37;;
13366;SDS011;6752;52.612;13.630;2023-12-22T11:06:58;11.53;;;3.10;;
13366;SDS011;6752;52.612;13.630;2023-12-22T11:12:01;13.07;;;3.00;;
13366;SDS011;6752;52.612;13.630;2023-12-22T11:17:03;12.10;;;2.70;;
13366;SDS011;6752;52.612;13.630;2023-12-22T11:22:06;9.73;;;2.67;;
13366;SDS011;6752;52.612;13.630;2023-12-22T11:27:08;12.33;;;2.67;;
13366;SDS011;6752;52.612;13.630;2023-12-22T11:32:11;9.50;;;2.20;;
13366;SDS011;6752;52.612;13.630;2023-12-22T11:37:14;9.17;;;2.53;;
13366;SDS011;6752;52.612;13.630;2023-12-22T11:42:20;7.07;;;2.20;;
13366;SDS011;6752;52.612;13.630;2023-12-22T11:47:24;7.07;;;2.17;;
13366;SDS011;6752;52.612;13.630;2023-12-22T11:52:26;10.60;;;2.83;;
13366;SDS011;6752;52.612;13.630;2023-12-22T11:57:32;7.47;;;2.30;;
13366;SDS011;6752;52.612;13.630;2023-12-22T12:02:34;9.87;;;2.47;;
13366;SDS011;6752;52.612;13.630;2023-12-22T12:12:38;8.27;;;1.90;;
13366;SDS011;6752;52.612;13.630;2023-12-22T12:17:41;6.77;;;1.70;;
13366;SDS011;6752;52.612;13.630;2023-12-22T12:22:43;9.10;;;1.90;;
13366;SDS011;6752;52.612;13.630;2023-12-22T12:27:45;7.97;;;1.87;;
13366;SDS011;6752;52.612;13.630;2023-12-22T12:32:48;9.03;;;2.37;;
13366;SDS011;6752;52.612;13.630;2023-12-22T12:37:51;4.73;;;1.77;;
13366;SDS011;6752;52.612;13.630;2023-12-22T12:42:52;9.63;;;2.40;;
13366;SDS011;6752;52.612;13.630;2023-12-22T12:47:58;10.57;;;2.33;;
13366;SDS011;6752;52.612;13.630;2023-12-22T12:53:00;9.50;;;2.20;;
13366;SDS011;6752;52.612;13.630;2023-12-22T12:58:02;7.37;;;2.10;;
13366;SDS011;6752;52.612;13.630;2023-12-22T13:03:05;7.93;;;2.03;;
13366;SDS011;6752;52.612;13.630;2023-12-22T13:08:08;11.53;;;2.67;;
13366;SDS011;6752;52.612;13.630;2023-12-22T13:13:09;8.67;;;2.37;;
13366;SDS011;6752;52.612;13.630;2023-12-22T13:18:12;6.57;;;2.00;;
13366;SDS011;6752;52.612;13.630;2023-12-22T13:23:16;6.03;;;1.80;;
13366;SDS011;6752;52.612;13.630;2023-12-22T13:28:24;11.60;;;2.27;;
13366;SDS011;6752;52.612;13.630;2023-12-22T13:33:19;9.63;;;2.60;;
13366;SDS011;6752;52.612;13.630;2023-12-22T13:38:21;8.40;;;2.27;;
13366;SDS011;6752;52.612;13.630;2023-12-22T13:43:27;6.63;;;1.93;;
13366;SDS011;6752;52.612;13.630;2023-12-22T13:48:26;9.83;;;2.03;;
13366;SDS011;6752;52.612;13.630;2023-12-22T13:53:28;5.87;;;1.80;;
13366;SDS011;6752;52.612;13.630;2023-12-22T13:58:31;8.27;;;2.00;;
13366;SDS011;6752;52.612;13.630;2023-12-22T14:03:33;6.87;;;1.97;;
13366;SDS011;6752;52.612;13.630;2023-12-22T14:08:35;6.70;;;2.00;;
13366;SDS011;6752;52.612;13.630;2023-12-22T14:13:38;7.77;;;2.10;;
13366;SDS011;6752;52.612;13.630;2023-12-22T14:18:40;5.90;;;1.83;;
13366;SDS011;6752;52.612;13.630;2023-12-22T14:23:42;7.33;;;2.10;;
13366;SDS011;6752;52.612;13.630;2023-12-22T14:28:45;7.13;;;1.70;;
13366;SDS011;6752;52.612;13.630;2023-12-22T14:33:47;9.13;;;1.80;;
13366;SDS011;6752;52.612;13.630;2023-12-22T14:38:49;8.65;;;2.50;;
13366;SDS011;6752;52.612;13.630;2023-12-22T14:43:52;7.57;;;2.37;;
13366;SDS011;6752;52.612;13.630;2023-12-22T14:48:54;8.83;;;1.97;;
13366;SDS011;6752;52.612;13.630;2023-12-22T14:53:56;8.50;;;2.00;;
13366;SDS011;6752;52.612;13.630;2023-12-22T14:58:59;9.97;;;2.20;;
13366;SDS011;6752;52.612;13.630;2023-12-22T15:04:01;8.83;;;2.17;;
13366;SDS011;6752;52.612;13.630;2023-12-22T15:09:03;8.97;;;2.40;;
13366;SDS011;6752;52.612;13.630;2023-12-22T15:14:06;7.27;;;1.90;;
13366;SDS011;6752;52.612;13.630;2023-12-22T15:19:08;5.17;;;1.57;;
13366;SDS011;6752;52.612;13.630;2023-12-22T15:24:10;9.80;;;1.70;;
13366;SDS011;6752;52.612;13.630;2023-12-22T15:29:13;9.27;;;2.23;;
13366;SDS011;6752;52.612;13.630;2023-12-22T15:34:15;7.07;;;1.60;;
13366;SDS011;6752;52.612;13.630;2023-12-22T15:39:18;6.93;;;1.63;;
13366;SDS011;6752;52.612;13.630;2023-12-22T15:44:23;6.20;;;1.20;;
13366;SDS011;6752;52.612;13.630;2023-12-22T15:49:25;6.33;;;1.47;;
13366;SDS011;6752;52.612;13.630;2023-12-22T15:54:27;6.17;;;1.90;;
13366;SDS011;6752;52.612;13.630;2023-12-22T15:59:30;6.30;;;1.50;;
13366;SDS011;6752;52.612;13.630;2023-12-22T16:04:32;5.50;;;1.27;;
13366;SDS011;6752;52.612;13.630;2023-12-22T16:09:34;6.57;;;1.60;;
13366;SDS011;6752;52.612;13.630;2023-12-22T16:14:37;8.13;;;2.00;;
13366;SDS011;6752;52.612;13.630;2023-12-22T16:19:39;8.37;;;1.70;;
13366;SDS011;6752;52.612;13.630;2023-12-22T16:24:41;8.73;;;2.50;;
13366;SDS011;6752;52.612;13.630;2023-12-22T16:29:44;8.53;;;2.27;;
13366;SDS011;6752;52.612;13.630;2023-12-22T16:34:46;7.50;;;2.20;;
13366;SDS011;6752;52.612;13.630;2023-12-22T16:39:49;10.03;;;2.13;;
13366;SDS011;6752;52.612;13.630;2023-12-22T16:44:51;6.03;;;1.67;;
13366;SDS011;6752;52.612;13.630;2023-12-22T16:49:53;8.27;;;2.10;;
13366;SDS011;6752;52.612;13.630;2023-12-22T16:54:55;9.67;;;1.60;;
13366;SDS011;6752;52.612;13.630;2023-12-22T16:59:58;6.60;;;1.60;;
13366;SDS011;6752;52.612;13.630;2023-12-22T17:05:00;4.80;;;1.43;;
13366;SDS011;6752;52.612;13.630;2023-12-22T17:10:03;7.80;;;1.83;;
13366;SDS011;6752;52.612;13.630;2023-12-22T17:15:05;7.87;;;2.10;;
13366;SDS011;6752;52.612;13.630;2023-12-22T17:20:07;7.80;;;1.90;;
13366;SDS011;6752;52.612;13.630;2023-12-22T17:25:10;6.77;;;1.60;;
13366;SDS011;6752;52.612;13.630;2023-12-22T17:30:15;6.30;;;2.10;;
13366;SDS011;6752;52.612;13.630;2023-12-22T17:35:17;6.33;;;2.07;;
13366;SDS011;6752;52.612;13.630;2023-12-22T17:40:19;5.15;;;2.12;;
13366;SDS011;6752;52.612;13.630;2023-12-22T17:45:22;6.13;;;1.70;;
13366;SDS011;6752;52.612;13.630;2023-12-22T17:50:24;7.10;;;1.80;;
13366;SDS011;6752;52.612;13.630;2023-12-22T17:55:26;7.67;;;1.80;;
13366;SDS011;6752;52.612;13.630;2023-12-22T18:00:29;5.67;;;1.63;;
13366;SDS011;6752;52.612;13.630;2023-12-22T18:05:31;5.53;;;1.40;;
13366;SDS011;6752;52.612;13.630;2023-12-22T18:10:33;7.50;;;1.60;;
13366;SDS011;6752;52.612;13.630;2023-12-22T18:15:36;6.67;;;1.40;;
13366;SDS011;6752;52.612;13.630;2023-12-22T18:20:38;7.32;;;2.10;;
13366;SDS011;6752;52.612;13.630;2023-12-22T18:25:41;6.33;;;1.77;;
13366;SDS011;6752;52.612;13.630;2023-12-22T18:30:43;6.30;;;1.50;;
13366;SDS011;6752;52.612;13.630;2023-12-22T18:35:45;5.07;;;1.63;;
13366;SDS011;6752;52.612;13.630;2023-12-22T18:40:48;7.17;;;1.53;;
13366;SDS011;6752;52.612;13.630;2023-12-22T18:45:50;6.60;;;1.80;;
13366;SDS011;6752;52.612;13.630;2023-12-22T18:50:52;6.67;;;2.07;;
13366;SDS011;6752;52.612;13.630;2023-12-22T18:55:55;8.77;;;2.23;;
13366;SDS011;6752;52.612;13.630;2023-12-22T19:00:57;6.25;;;2.00;;
13366;SDS011;6752;52.612;13.630;2023-12-22T19:05:59;8.33;;;1.70;;
13366;SDS011;6752;52.612;13.630;2023-12-22T19:11:02;7.80;;;2.13;;
13366;SDS011;6752;52.612;13.630;2023-12-22T19:16:04;6.68;;;2.10;;
13366;SDS011;6752;52.612;13.630;2023-12-22T19:21:06;7.73;;;1.67;;
13366;SDS011;6752;52.612;13.630;2023-12-22T19:26:10;5.00;;;1.83;;
13366;SDS011;6752;52.612;13.630;2023-12-22T19:31:12;8.07;;;2.00;;
13366;SDS011;6752;52.612;13.630;2023-12-22T19:36:14;9.00;;;2.30;;
13366;SDS011;6752;52.612;13.630;2023-12-22T19:41:17;8.32;;;2.45;;
13366;SDS011;6752;52.612;13.630;2023-12-22T19:46:19;8.10;;;2.20;;
13366;SDS011;6752;52.612;13.630;2023-12-22T19:51:21;7.50;;;1.97;;
13366;SDS011;6752;52.612;13.630;2023-12-22T19:56:24;6.27;;;2.00;;
13366;SDS011;6752;52.612;13.630;2023-12-22T20:01:26;7.93;;;2.00;;
13366;SDS011;6752;52.612;13.630;2023-12-22T20:06:28;7.20;;;2.15;;
13366;SDS011;6752;52.612;13.630;2023-12-22T20:11:31;7.67;;;2.13;;
13366;SDS011;6752;52.612;13.630;2023-12-22T20:16:33;9.23;;;2.00;;
13366;SDS011;6752;52.612;13.630;2023-12-22T20:21:36;6.17;;;1.70;;
13366;SDS011;6752;52.612;13.630;2023-12-22T20:26:38;6.93;;;1.97;;
13366;SDS011;6752;52.612;13.630;2023-12-22T20:31:40;10.37;;;2.00;;
13366;SDS011;6752;52.612;13.630;2023-12-22T20:36:43;6.83;;;2.20;;
13366;SDS011;6752;52.612;13.630;2023-12-22T20:41:45;7.93;;;1.40;;
13366;SDS011;6752;52.612;13.630;2023-12-22T20:46:47;7.83;;;2.00;;
13366;SDS011;6752;52.612;13.630;2023-12-22T20:51:50;7.20;;;1.80;;
13366;SDS011;6752;52.612;13.630;2023-12-22T20:56:52;7.47;;;1.90;;
13366;SDS011;6752;52.612;13.630;2023-12-22T21:01:54;5.78;;;1.85;;
13366;SDS011;6752;52.612;13.630;2023-12-22T21:06:57;6.43;;;1.67;;
13366;SDS011;6752;52.612;13.630;2023-12-22T21:11:59;6.83;;;1.57;;
13366;SDS011;6752;52.612;13.630;2023-12-22T21:17:01;4.30;;;1.37;;
13366;SDS011;6752;52.612;13.630;2023-12-22T21:22:04;4.70;;;0.90;;
13366;SDS011;6752;52.612;13.630;2023-12-22T21:27:06;3.57;;;0.87;;
13366;SDS011;6752;52.612;13.630;2023-12-22T21:32:08;3.37;;;0.80;;
13366;SDS011;6752;52.612;13.630;2023-12-22T21:37:11;2.73;;;0.73;;
13366;SDS011;6752;52.612;13.630;2023-12-22T21:42:13;4.17;;;0.80;;
13366;SDS011;6752;52.612;13.630;2023-12-22T21:47:15;4.57;;;1.17;;
13366;SDS011;6752;52.612;13.630;2023-12-22T21:52:18;2.87;;;0.63;;
13366;SDS011;6752;52.612;13.630;2023-12-22T21:57:20;4.60;;;1.00;;
13366;SDS011;6752;52.612;13.630;2023-12-22T22:02:23;1.97;;;0.63;;
13366;SDS011;6752;52.612;13.630;2023-12-22T22:07:25;3.67;;;1.02;;
13366;SDS011;6752;52.612;13.630;2023-12-22T22:12:27;4.33;;;0.80;;
13366;SDS011;6752;52.612;13.630;2023-12-22T22:17:30;3.77;;;0.90;;
13366;SDS011;6752;52.612;13.630;2023-12-22T22:22:32;2.43;;;0.40;;
13366;SDS011;6752;52.612;13.630;2023-12-22T22:27:34;2.60;;;0.77;;
13366;SDS011;6752;52.612;13.630;2023-12-22T22:32:37;1.53;;;0.60;;
13366;SDS011;6752;52.612;13.630;2023-12-22T22:37:39;3.07;;;0.70;;
13366;SDS011;6752;52.612;13.630;2023-12-22T22:42:41;2.63;;;0.50;;
13366;SDS011;6752;52.612;13.630;2023-12-22T22:47:44;2.53;;;0.90;;
13366;SDS011;6752;52.612;13.630;2023-12-22T22:52:46;1.90;;;0.70;;
13366;SDS011;6752;52.612;13.630;2023-12-22T22:57:48;4.87;;;0.70;;
13366;SDS011;6752;52.612;13.630;2023-12-22T23:02:51;3.23;;;0.60;;
13366;SDS011;6752;52.612;13.630;2023-12-22T23:07:53;2.60;;;0.50;;
13366;SDS011;6752;52.612;13.630;2023-12-22T23:12:56;0.80;;;0.27;;
13366;SDS011;6752;52.612;13.630;2023-12-22T23:18:00;1.83;;;0.60;;
13366;SDS011;6752;52.612;13.630;2023-12-22T23:23:02;1.43;;;0.50;;
13366;SDS011;6752;52.612;13.630;2023-12-22T23:28:05;2.17;;;0.50;;
13366;SDS011;6752;52.612;13.630;2023-12-22T23:33:07;2.25;;;0.85;;
13366;SDS011;6752;52.612;13.630;2023-12-22T23:38:09;1.70;;;0.50;;
13366;SDS011;6752;52.612;13.630;2023-12-22T23:43:12;2.03;;;0.60;;
13366;SDS011;6752;52.612;13.630;2023-12-22T23:48:14;2.30;;;0.50;;
13366;SDS011;6752;52.612;13.630;2023-12-22T23:53:16;1.63;;;0.43;;
13366;SDS011;6752;52.612;13.630;2023-12-22T23:58:19;0.97;;;0.50;;
